Time;durP1;ratioP1;P1;durP2;ratioP2;P2;SDS_P1;SDS_P2;PMS_P1;PMS_P2;Temp;Humidity;BMP_temperature;BMP_pressure;BME280_temperature;BME280_humidity;BME280_pressure;Samples;Min_cycle;Max_cycle;Signal;HPM_P1;HPM_P2
2023/09/24 00:00:10;;;;;;;21.25;9.60;;;;;;;8.84;100.00;102190.59;5092793;28;20443;-62
2023/09/24 00:02:36;;;;;;;22.35;9.57;;;;;;;8.92;100.00;102190.84;5089196;28;20523;-65
2023/09/24 00:05:01;;;;;;;22.50;9.65;;;;;;;8.89;100.00;102191.66;5090986;28;20119;-65
2023/09/24 00:07:27;;;;;;;21.95;9.88;;;;;;;8.92;100.00;102197.03;5093045;28;20115;-65
2023/09/24 00:09:52;;;;;;;23.27;9.95;;;;;;;8.87;100.00;102199.50;5096212;28;20439;-64
2023/09/24 00:12:18;;;;;;;22.77;10.18;;;;;;;8.89;100.00;102202.19;5095788;28;20107;-65
2023/09/24 00:14:43;;;;;;;22.88;9.52;;;;;;;8.76;100.00;102200.00;5096119;28;20020;-66
2023/09/24 00:17:08;;;;;;;23.00;10.77;;;;;;;8.79;100.00;102197.47;5095767;28;20075;-66
2023/09/24 00:19:34;;;;;;;22.52;10.18;;;;;;;8.78;100.00;102203.56;5094660;28;20048;-65
2023/09/24 00:22:00;;;;;;;23.88;10.57;;;;;;;8.76;100.00;102200.88;5095767;28;20044;-65
2023/09/24 00:24:26;;;;;;;23.02;10.80;;;;;;;8.77;100.00;102215.00;5095725;28;20040;-66
2023/09/24 00:26:51;;;;;;;22.73;10.75;;;;;;;8.71;100.00;102208.66;5095683;28;20024;-66
2023/09/24 00:29:16;;;;;;;23.30;11.13;;;;;;;8.76;100.00;102205.28;5096054;28;20111;-65
2023/09/24 00:31:42;;;;;;;23.77;11.02;;;;;;;8.78;100.00;102204.50;5095546;28;20032;-65
2023/09/24 00:34:08;;;;;;;23.73;11.40;;;;;;;8.69;100.00;102209.44;5095382;28;20024;-65
2023/09/24 00:36:33;;;;;;;23.83;11.70;;;;;;;8.68;100.00;102213.81;5095821;28;20020;-65
2023/09/24 00:39:00;;;;;;;23.80;11.40;;;;;;;8.64;100.00;102217.19;5095394;28;20043;-68
2023/09/24 00:41:26;;;;;;;24.25;11.93;;;;;;;8.64;100.00;102222.47;5095404;28;20051;-73
2023/09/24 00:43:52;;;;;;;25.05;12.25;;;;;;;8.63;100.00;102222.41;5095548;28;20031;-67
2023/09/24 00:46:17;;;;;;;24.25;12.50;;;;;;;8.61;100.00;102227.63;5095221;28;20044;-64
2023/09/24 00:48:43;;;;;;;24.13;11.90;;;;;;;8.56;100.00;102218.66;5095364;28;20059;-72
2023/09/24 00:51:18;;;;;;;25.98;12.68;;;;;;;8.55;100.00;102227.44;5094077;28;20058;-64
2023/09/24 00:53:45;;;;;;;23.42;11.73;;;;;;;8.48;100.00;102230.69;5095259;28;20024;-71
2023/09/24 00:56:11;;;;;;;23.77;12.55;;;;;;;8.42;100.00;102230.41;5095332;28;20386;-63
2023/09/24 00:58:38;;;;;;;23.38;12.73;;;;;;;8.41;100.00;102236.56;5095568;28;20032;-63
2023/09/24 01:01:03;;;;;;;26.45;13.52;;;;;;;8.36;100.00;102232.00;5095042;28;20039;-64
2023/09/24 01:03:29;;;;;;;26.95;14.27;;;;;;;8.34;100.00;102223.19;5094804;28;20028;-73
2023/09/24 01:05:55;;;;;;;24.85;13.75;;;;;;;8.37;100.00;102218.00;5095143;28;20371;-72
2023/09/24 01:08:22;;;;;;;26.38;14.38;;;;;;;8.32;100.00;102219.56;5094798;28;20497;-69
2023/09/24 01:10:48;;;;;;;25.33;14.48;;;;;;;8.32;100.00;102224.84;5094684;28;20036;-73
2023/09/24 01:13:15;;;;;;;25.58;14.20;;;;;;;8.32;100.00;102218.69;5095360;28;20386;-70
2023/09/24 01:15:44;;;;;;;25.20;14.00;;;;;;;8.20;100.00;102224.41;5094768;28;20036;-70
2023/09/24 01:18:09;;;;;;;25.45;13.68;;;;;;;8.17;100.00;102224.31;5093338;28;20103;-71
2023/09/24 01:20:36;;;;;;;25.20;13.77;;;;;;;8.02;100.00;102224.63;5093000;28;20161;-76
2023/09/24 01:23:04;;;;;;;25.90;14.18;;;;;;;8.08;100.00;102223.94;5094574;28;20487;-72
2023/09/24 01:25:37;;;;;;;25.33;14.40;;;;;;;8.09;100.00;102221.38;5094467;28;20032;-72
2023/09/24 01:28:04;;;;;;;24.50;14.43;;;;;;;8.07;100.00;102224.78;5090509;28;20036;-70
2023/09/24 01:30:31;;;;;;;25.15;14.65;;;;;;;8.07;100.00;102227.41;5094427;28;20032;-74
2023/09/24 01:32:57;;;;;;;25.20;14.52;;;;;;;8.03;100.00;102219.41;5094321;28;20070;-68
2023/09/24 01:35:27;;;;;;;24.88;14.95;;;;;;;8.14;100.00;102224.16;5094565;28;20020;-67
2023/09/24 01:37:54;;;;;;;25.17;14.25;;;;;;;8.13;100.00;102223.28;5094404;28;20024;-67
2023/09/24 01:40:21;;;;;;;24.67;13.88;;;;;;;8.16;100.00;102222.50;5094186;28;20024;-67
2023/09/24 01:42:47;;;;;;;25.38;14.70;;;;;;;8.18;100.00;102228.72;5094373;28;20036;-67
2023/09/24 01:45:14;;;;;;;26.38;14.57;;;;;;;8.18;100.00;102221.72;5094313;28;20047;-70
2023/09/24 01:47:40;;;;;;;25.33;15.00;;;;;;;8.15;100.00;102220.69;5094367;28;20028;-67
2023/09/24 01:50:07;;;;;;;25.75;15.25;;;;;;;8.17;100.00;102222.56;5094228;28;20471;-67
2023/09/24 01:52:37;;;;;;;26.60;15.23;;;;;;;8.14;100.00;102218.91;5089919;28;20044;-68
2023/09/24 01:55:02;;;;;;;24.88;14.52;;;;;;;8.10;100.00;102215.28;5093990;28;20470;-68
2023/09/24 01:57:29;;;;;;;26.23;14.65;;;;;;;8.06;100.00;102215.13;5093892;28;20040;-67
2023/09/24 01:59:56;;;;;;;27.67;15.35;;;;;;;8.03;100.00;102215.88;5094143;28;20402;-67
2023/09/24 02:02:22;;;;;;;24.77;14.20;;;;;;;8.11;100.00;102218.78;5094032;28;20085;-70
2023/09/24 02:04:48;;;;;;;25.80;15.38;;;;;;;8.01;100.00;102223.72;5094031;28;20035;-67
2023/09/24 02:07:15;;;;;;;28.23;14.75;;;;;;;8.05;100.00;102221.22;5093910;28;20028;-67
2023/09/24 02:09:41;;;;;;;25.35;14.80;;;;;;;8.06;100.00;102223.91;5093599;28;20128;-67
2023/09/24 02:12:08;;;;;;;26.75;14.35;;;;;;;8.05;100.00;102223.84;5093834;28;20446;-67
2023/09/24 02:14:33;;;;;;;25.08;14.23;;;;;;;8.05;100.00;102215.94;5089831;28;20063;-66
2023/09/24 02:16:59;;;;;;;23.80;14.10;;;;;;;8.02;100.00;102227.25;5093491;28;20024;-66
2023/09/24 02:19:25;;;;;;;24.20;13.93;;;;;;;7.99;100.00;102225.44;5092453;28;20031;-66
2023/09/24 02:21:50;;;;;;;26.15;14.35;;;;;;;7.94;100.00;102234.00;5093285;28;20491;-65
2023/09/24 02:24:16;;;;;;;25.58;14.15;;;;;;;7.93;100.00;102234.81;5093751;28;20111;-66
2023/09/24 02:26:42;;;;;;;24.45;14.27;;;;;;;7.91;100.00;102242.66;5093879;28;20024;-66
2023/09/24 02:29:07;;;;;;;25.10;14.50;;;;;;;7.89;100.00;102246.97;5093367;28;20030;-65
2023/09/24 02:31:33;;;;;;;25.33;14.15;;;;;;;7.91;100.00;102247.06;5092359;28;20360;-65
2023/09/24 02:33:58;;;;;;;24.85;14.15;;;;;;;7.90;100.00;102253.16;5093426;28;20035;-66
2023/09/24 02:36:24;;;;;;;26.55;15.10;;;;;;;7.85;100.00;102245.97;5093232;28;20075;-66
2023/09/24 02:38:50;;;;;;;25.60;15.18;;;;;;;7.86;100.00;102244.22;5093155;28;20031;-66
2023/09/24 02:41:15;;;;;;;25.33;14.82;;;;;;;7.84;100.00;102251.19;5093268;28;20070;-64
2023/09/24 02:43:40;;;;;;;26.00;14.23;;;;;;;7.80;100.00;102244.88;5093318;28;20031;-66
2023/09/24 02:46:06;;;;;;;26.02;14.32;;;;;;;7.80;100.00;102250.13;5093189;28;20051;-66
2023/09/24 02:48:33;;;;;;;25.75;14.82;;;;;;;7.78;100.00;102251.84;5091954;28;20032;-65
2023/09/24 02:51:08;;;;;;;25.85;14.85;;;;;;;7.75;100.00;102251.72;5092897;28;20032;-66
2023/09/24 02:53:33;;;;;;;26.13;14.52;;;;;;;7.73;100.00;102249.84;5088917;28;20032;-66
2023/09/24 02:55:59;;;;;;;26.50;14.75;;;;;;;7.68;100.00;102249.69;5093189;28;20502;-67
2023/09/24 02:58:24;;;;;;;24.20;14.02;;;;;;;7.64;100.00;102253.03;5092856;28;20024;-66
2023/09/24 03:00:50;;;;;;;26.98;14.27;;;;;;;7.61;100.00;102248.53;5092860;28;20107;-70
2023/09/24 03:03:16;;;;;;;25.02;14.32;;;;;;;7.61;100.00;102247.66;5093009;28;20039;-65
2023/09/24 03:05:42;;;;;;;26.48;14.38;;;;;;;7.56;100.00;102247.47;5092824;28;20352;-64
2023/09/24 03:08:11;;;;;;;25.77;14.63;;;;;;;7.50;100.00;102249.88;5093023;28;20097;-70
2023/09/24 03:10:36;;;;;;;24.98;13.90;;;;;;;7.40;100.00;102250.34;5089220;28;20063;-62
2023/09/24 03:13:04;;;;;;;24.92;13.50;;;;;;;7.33;100.00;102257.97;5093004;28;20380;-65
2023/09/24 03:15:30;;;;;;;24.63;13.70;;;;;;;7.31;100.00;102251.78;5092876;28;20024;-66
2023/09/24 03:17:56;;;;;;;25.20;14.00;;;;;;;7.32;100.00;102265.81;5092847;28;20020;-63
2023/09/24 03:20:22;;;;;;;24.38;13.60;;;;;;;7.36;100.00;102261.59;5092363;28;20575;-66
2023/09/24 03:22:50;;;;;;;25.17;13.80;;;;;;;7.33;100.00;102260.63;5092489;28;20040;-69
2023/09/24 03:25:16;;;;;;;25.15;13.38;;;;;;;7.37;100.00;102266.91;5092848;28;20032;-67
2023/09/24 03:27:42;;;;;;;25.30;13.82;;;;;;;7.42;100.00;102267.97;5092553;28;20029;-62
2023/09/24 03:30:11;;;;;;;24.45;13.50;;;;;;;7.41;100.00;102271.47;5092621;28;20020;-64
2023/09/24 03:32:37;;;;;;;25.08;13.57;;;;;;;7.41;100.00;102275.81;5089039;28;20032;-69
2023/09/24 03:35:09;;;;;;;23.98;13.15;;;;;;;7.36;100.00;102278.25;5092538;28;20547;-66
2023/09/24 03:37:37;;;;;;;27.35;13.38;;;;;;;7.29;100.00;102271.84;5088459;28;20023;-62
2023/09/24 03:40:05;;;;;;;25.73;14.43;;;;;;;7.27;100.00;102278.78;5092559;28;20368;-67
2023/09/24 03:42:31;;;;;;;25.52;14.45;;;;;;;7.19;100.00;102282.81;5094288;28;20020;-62
2023/09/24 03:44:56;;;;;;;25.45;14.18;;;;;;;7.10;100.00;102278.09;5096707;28;20378;-63
2023/09/24 03:47:22;;;;;;;24.20;13.60;;;;;;;7.13;100.00;102280.84;5095492;28;20056;-62
2023/09/24 03:49:47;;;;;;;25.20;13.50;;;;;;;7.08;100.00;102281.50;5096633;28;20025;-62
2023/09/24 03:52:12;;;;;;;24.80;13.60;;;;;;;7.04;100.00;102283.09;5096385;28;20036;-67
2023/09/24 03:54:38;;;;;;;24.27;13.25;;;;;;;7.00;100.00;102283.78;5096609;28;20320;-65
2023/09/24 03:57:05;;;;;;;24.08;13.32;;;;;;;7.04;100.00;102284.84;5096303;28;20043;-62
2023/09/24 03:59:35;;;;;;;24.20;13.25;;;;;;;6.98;100.00;102278.47;5096492;28;20040;-62
2023/09/24 04:02:06;;;;;;;24.52;13.23;;;;;;;6.95;100.00;102286.22;5096314;28;20024;-67
2023/09/24 04:04:32;;;;;;;25.02;13.38;;;;;;;6.98;100.00;102281.09;5095985;28;20085;-63
2023/09/24 04:06:57;;;;;;;24.50;13.20;;;;;;;7.03;100.00;102286.53;5096293;28;20134;-65
2023/09/24 04:09:23;;;;;;;25.00;13.02;;;;;;;6.96;100.00;102284.50;5096459;28;20078;-62
2023/09/24 04:11:48;;;;;;;23.90;12.30;;;;;;;6.93;100.00;102292.25;5095905;28;20039;-67
2023/09/24 04:14:14;;;;;;;24.20;12.73;;;;;;;6.94;100.00;102294.06;5095964;28;20031;-63
2023/09/24 04:16:41;;;;;;;24.38;12.50;;;;;;;6.88;100.00;102292.06;5094715;28;20442;-64
2023/09/24 04:19:07;;;;;;;23.60;12.73;;;;;;;6.88;100.00;102296.44;5095959;28;20036;-65
2023/09/24 04:21:32;;;;;;;25.00;12.63;;;;;;;6.84;100.00;102300.66;5095574;28;20066;-62
2023/09/24 04:23:58;;;;;;;24.52;12.32;;;;;;;6.84;100.00;102297.13;5096250;28;20109;-66
2023/09/24 04:26:24;;;;;;;24.88;12.15;;;;;;;6.89;100.00;102295.63;5096042;28;20066;-65
2023/09/24 04:28:51;;;;;;;23.15;11.95;;;;;;;6.86;100.00;102301.63;5095650;28;20052;-65
2023/09/24 04:31:17;;;;;;;23.40;11.90;;;;;;;6.78;100.00;102298.66;5095933;28;20394;-65
2023/09/24 04:33:44;;;;;;;23.48;11.80;;;;;;;6.83;100.00;102296.25;5094274;28;20494;-66
2023/09/24 04:36:09;;;;;;;24.52;12.10;;;;;;;6.83;100.00;102295.31;5095524;28;20119;-66
2023/09/24 04:38:36;;;;;;;25.17;12.10;;;;;;;6.86;100.00;102306.88;5095688;28;20730;-66
2023/09/24 04:41:02;;;;;;;24.23;11.88;;;;;;;6.79;100.00;102305.72;5095377;28;20036;-66
2023/09/24 04:43:27;;;;;;;23.67;11.77;;;;;;;6.79;100.00;102307.47;5095416;28;20031;-64
2023/09/24 04:45:53;;;;;;;22.65;11.77;;;;;;;6.75;100.00;102305.53;5095461;28;20028;-65
2023/09/24 04:48:18;;;;;;;24.27;11.95;;;;;;;6.74;100.00;102309.91;5077140;28;20030;-65
2023/09/24 04:50:43;;;;;;;23.73;12.18;;;;;;;6.73;100.00;102302.81;5095415;28;20032;-64
2023/09/24 04:53:09;;;;;;;25.20;11.95;;;;;;;6.74;100.00;102301.09;5094696;28;20383;-64
2023/09/24 04:55:34;;;;;;;24.15;12.40;;;;;;;6.77;100.00;102304.75;5090637;28;20028;-66
2023/09/24 04:58:00;;;;;;;23.17;12.82;;;;;;;6.73;100.00;102309.81;5095318;28;20064;-66
2023/09/24 05:00:26;;;;;;;25.02;12.82;;;;;;;6.73;100.00;102307.19;5094983;28;20036;-66
2023/09/24 05:02:51;;;;;;;24.95;12.65;;;;;;;6.73;100.00;102309.81;5095014;28;20443;-66
2023/09/24 05:05:16;;;;;;;24.25;12.32;;;;;;;6.68;100.00;102306.97;5093844;28;20024;-62
2023/09/24 05:07:42;;;;;;;25.48;13.60;;;;;;;6.71;100.00;102308.84;5095187;28;20062;-66
2023/09/24 05:10:09;;;;;;;25.92;13.27;;;;;;;6.73;100.00;102305.47;5095164;28;20020;-66
2023/09/24 05:12:35;;;;;;;24.63;13.65;;;;;;;6.70;100.00;102312.28;5094910;28;20089;-64
2023/09/24 05:15:00;;;;;;;25.08;13.38;;;;;;;6.71;100.00;102306.22;5094683;28;20028;-66
2023/09/24 05:17:26;;;;;;;25.08;13.30;;;;;;;6.68;100.00;102311.34;5094712;28;20149;-63
2023/09/24 05:19:53;;;;;;;23.95;13.07;;;;;;;6.67;100.00;102318.34;5094762;28;20048;-70
2023/09/24 05:22:19;;;;;;;23.58;12.80;;;;;;;6.68;100.00;102319.22;5094385;28;20101;-62
2023/09/24 05:24:44;;;;;;;23.83;12.77;;;;;;;6.63;100.00;102319.91;5094593;28;20051;-62
2023/09/24 05:27:09;;;;;;;23.00;12.73;;;;;;;6.56;100.00;102328.34;5094786;28;20032;-62
2023/09/24 05:29:35;;;;;;;24.50;12.73;;;;;;;6.55;100.00;102331.84;5090397;28;20032;-62
2023/09/24 05:32:02;;;;;;;23.90;13.15;;;;;;;6.58;100.00;102339.84;5094276;28;20028;-63
2023/09/24 05:34:28;;;;;;;24.90;13.35;;;;;;;6.56;100.00;102337.97;5093261;28;20428;-61
2023/09/24 05:36:53;;;;;;;25.63;13.68;;;;;;;6.60;100.00;102338.19;5094308;28;20111;-62
2023/09/24 05:39:18;;;;;;;24.77;13.52;;;;;;;6.58;100.00;102346.81;5094227;28;20090;-64
2023/09/24 05:41:44;;;;;;;23.17;12.65;;;;;;;6.55;100.00;102350.22;5094431;28;20123;-62
2023/09/24 05:44:09;;;;;;;24.27;13.43;;;;;;;6.56;100.00;102352.00;5094233;28;20111;-62
2023/09/24 05:46:34;;;;;;;25.25;13.60;;;;;;;6.64;100.00;102360.25;5094940;28;20036;-63
2023/09/24 05:49:00;;;;;;;25.45;13.85;;;;;;;6.69;100.00;102360.47;5094090;28;20032;-62
2023/09/24 05:51:26;;;;;;;25.23;13.10;;;;;;;6.72;100.00;102360.59;5093864;28;20142;-62
2023/09/24 05:53:54;;;;;;;24.38;13.30;;;;;;;6.71;100.00;102362.28;5094280;28;20032;-63
2023/09/24 05:56:19;;;;;;;25.05;13.55;;;;;;;6.75;100.00;102366.88;5093983;28;20028;-62
2023/09/24 05:58:45;;;;;;;24.40;13.07;;;;;;;6.77;100.00;102370.47;5093936;28;20039;-62
2023/09/24 06:01:15;;;;;;;25.08;13.68;;;;;;;6.81;100.00;102374.13;5093975;28;20036;-65
2023/09/24 06:03:40;;;;;;;24.95;13.25;;;;;;;6.82;100.00;102378.56;5093810;28;20028;-66
2023/09/24 06:06:09;;;;;;;24.42;13.65;;;;;;;6.91;100.00;102378.06;5093685;28;20080;-66
2023/09/24 06:08:36;;;;;;;23.90;13.18;;;;;;;6.93;100.00;102377.31;5093840;28;20468;-66
2023/09/24 06:11:02;;;;;;;24.17;12.98;;;;;;;6.96;100.00;102372.19;5093643;28;20032;-66
2023/09/24 06:13:27;;;;;;;25.30;12.88;;;;;;;7.03;100.00;102368.06;5093652;28;20055;-65
2023/09/24 06:16:02;;;;;;;25.48;13.00;;;;;;;7.11;100.00;102371.03;5093808;28;20376;-66
2023/09/24 06:18:27;;;;;;;23.55;12.90;;;;;;;7.18;100.00;102372.19;5093771;28;20024;-65
2023/09/24 06:20:53;;;;;;;23.95;12.25;;;;;;;7.22;100.00;102374.13;5093350;28;20089;-65
2023/09/24 06:23:19;;;;;;;24.08;12.30;;;;;;;7.28;100.00;102379.63;5093458;28;20032;-66
2023/09/24 06:25:45;;;;;;;23.30;11.90;;;;;;;7.37;100.00;102379.13;5093601;28;20024;-65
2023/09/24 06:28:10;;;;;;;24.95;12.02;;;;;;;7.40;100.00;102377.53;5092092;28;20364;-66
2023/09/24 06:30:38;;;;;;;23.83;11.27;;;;;;;7.45;100.00;102378.59;5086263;28;20032;-66
2023/09/24 06:33:04;;;;;;;23.50;11.60;;;;;;;7.53;100.00;102392.09;5092333;28;20063;-66
2023/09/24 06:35:29;;;;;;;22.77;10.88;;;;;;;7.59;100.00;102397.63;5093433;28;20119;-65
2023/09/24 06:37:55;;;;;;;23.25;10.90;;;;;;;7.63;100.00;102388.09;5093250;28;20542;-65
2023/09/24 06:40:20;;;;;;;23.58;10.52;;;;;;;7.65;100.00;102395.22;5092956;28;20043;-66
2023/09/24 06:42:45;;;;;;;23.10;10.25;;;;;;;7.70;100.00;102394.53;5093369;28;20024;-65
2023/09/24 06:45:11;;;;;;;22.42;9.73;;;;;;;7.75;100.00;102396.50;5093051;28;20097;-65
2023/09/24 06:47:36;;;;;;;21.63;9.30;;;;;;;7.79;100.00;102394.88;5093081;28;20103;-66
2023/09/24 06:50:02;;;;;;;22.38;9.52;;;;;;;7.82;100.00;102395.94;5092918;28;20016;-65
2023/09/24 06:52:30;;;;;;;22.70;9.25;;;;;;;7.91;100.00;102403.28;5093051;28;20031;-64
2023/09/24 06:54:56;;;;;;;21.83;9.20;;;;;;;7.92;100.00;102405.09;5088890;28;20097;-64
2023/09/24 06:57:21;;;;;;;22.10;8.90;;;;;;;7.96;100.00;102396.47;5090328;28;20487;-66
2023/09/24 06:59:47;;;;;;;22.17;9.43;;;;;;;8.02;100.00;102394.09;5088658;28;20040;-63
2023/09/24 07:02:15;;;;;;;21.58;8.75;;;;;;;8.06;100.00;102405.63;5092556;28;20085;-63
2023/09/24 07:04:40;;;;;;;21.33;8.75;;;;;;;8.15;100.00;102402.47;5092725;28;20437;-64
2023/09/24 07:07:07;;;;;;;22.05;9.40;;;;;;;8.23;100.00;102408.94;5092859;28;20028;-62
2023/09/24 07:09:33;;;;;;;21.00;8.70;;;;;;;8.28;100.00;102404.72;5089235;28;20036;-62
2023/09/24 07:11:58;;;;;;;22.30;8.95;;;;;;;8.37;100.00;102410.38;5092673;28;20047;-66
2023/09/24 07:14:24;;;;;;;21.73;9.15;;;;;;;8.47;100.00;102405.47;5093394;28;20479;-62
2023/09/24 07:16:49;;;;;;;22.20;9.10;;;;;;;8.49;100.00;102409.06;5091987;28;20063;-63
2023/09/24 07:19:14;;;;;;;22.05;8.88;;;;;;;8.58;100.00;102412.06;5092643;28;20082;-67
2023/09/24 07:21:40;;;;;;;23.08;9.52;;;;;;;8.68;100.00;102416.81;5091986;28;20078;-66
2023/09/24 07:24:06;;;;;;;22.20;9.02;;;;;;;8.77;100.00;102413.63;5092451;28;20032;-63
2023/09/24 07:26:32;;;;;;;21.13;8.30;;;;;;;8.85;100.00;102419.19;5092678;28;20383;-64
2023/09/24 07:28:57;;;;;;;23.42;8.85;;;;;;;8.97;100.00;102416.09;5092670;28;20024;-65
2023/09/24 07:31:24;;;;;;;22.13;8.40;;;;;;;9.07;100.00;102421.75;5092404;28;20111;-62
2023/09/24 07:33:51;;;;;;;22.67;8.80;;;;;;;9.21;100.00;102426.63;5092731;28;20420;-64
2023/09/24 07:36:16;;;;;;;22.25;8.23;;;;;;;9.34;100.00;102430.59;5092410;28;20028;-64
2023/09/24 07:38:42;;;;;;;22.55;8.10;;;;;;;9.50;100.00;102432.03;5087276;28;20456;-65
2023/09/24 07:41:08;;;;;;;22.10;8.05;;;;;;;9.65;100.00;102435.16;5081022;28;20035;-62
2023/09/24 07:43:38;;;;;;;23.08;7.80;;;;;;;9.76;100.00;102427.59;5084767;28;20099;-62
2023/09/24 07:46:07;;;;;;;21.60;7.22;;;;;;;9.86;100.00;102439.34;5091906;28;20032;-63
2023/09/24 07:48:32;;;;;;;21.55;7.20;;;;;;;9.95;100.00;102444.94;5092196;28;20028;-62
2023/09/24 07:50:59;;;;;;;21.17;6.90;;;;;;;10.03;100.00;102437.25;5092264;28;20534;-68
2023/09/24 07:53:24;;;;;;;20.20;6.25;;;;;;;10.10;100.00;102440.13;5087765;28;20025;-68
2023/09/24 07:55:57;;;;;;;20.55;6.40;;;;;;;10.23;100.00;102443.19;5092591;28;20028;-68
2023/09/24 07:58:23;;;;;;;;;;;;;;;10.27;100.00;102445.06;5091452;28;20403;-62
2023/09/24 08:00:49;;;;;;;20.10;6.20;;;;;;;10.38;100.00;102443.69;5092137;28;19916;-68
2023/09/24 08:03:14;;;;;;;19.63;5.68;;;;;;;10.50;100.00;102440.53;5092241;28;20028;-67
2023/09/24 08:05:39;;;;;;;19.25;5.40;;;;;;;10.63;100.00;102431.22;5092559;28;20028;-66
2023/09/24 08:08:05;;;;;;;18.73;5.70;;;;;;;10.71;100.00;102429.66;5092316;28;20035;-65
2023/09/24 08:10:30;;;;;;;19.50;5.13;;;;;;;10.84;100.00;102420.34;5092511;28;20122;-67
2023/09/24 08:12:55;;;;;;;19.25;5.32;;;;;;;10.97;100.00;102426.88;5092139;28;20395;-63
2023/09/24 08:15:21;;;;;;;18.88;5.35;;;;;;;11.11;100.00;102425.50;5092201;28;20463;-70
2023/09/24 08:17:46;;;;;;;18.52;5.05;;;;;;;11.20;100.00;102418.66;5092330;28;20024;-64
2023/09/24 08:20:12;;;;;;;18.35;5.05;;;;;;;11.28;100.00;102422.41;5090114;28;20596;-65
2023/09/24 08:22:37;;;;;;;18.23;4.70;;;;;;;11.36;100.00;102423.53;5088349;28;20544;-65
2023/09/24 08:25:02;;;;;;;18.00;4.28;;;;;;;11.51;100.00;102415.06;5092331;28;20544;-65
2023/09/24 08:27:28;;;;;;;16.38;4.60;;;;;;;11.61;100.00;102421.50;5091994;28;20036;-63
2023/09/24 08:29:53;;;;;;;16.45;4.35;;;;;;;11.71;100.00;102420.88;5089856;28;20032;-66
2023/09/24 08:32:19;;;;;;;16.88;4.32;;;;;;;11.79;100.00;102423.69;5095517;28;20138;-65
2023/09/24 08:34:44;;;;;;;15.65;4.13;;;;;;;11.86;100.00;102418.56;5095476;28;20074;-66
2023/09/24 08:37:09;;;;;;;15.68;4.00;;;;;;;12.14;100.00;102424.56;5095082;28;20028;-65
2023/09/24 08:39:35;;;;;;;15.45;3.95;;;;;;;12.66;100.00;102416.84;5095496;28;20114;-65
2023/09/24 08:42:02;;;;;;;14.93;3.53;;;;;;;13.18;100.00;102419.63;5092114;28;20059;-66
2023/09/24 08:44:28;;;;;;;15.35;3.70;;;;;;;13.37;100.00;102425.34;5095258;28;20039;-64
2023/09/24 08:46:54;;;;;;;13.50;3.50;;;;;;;13.39;100.00;102423.59;5095381;28;20074;-64
2023/09/24 08:49:20;;;;;;;14.32;3.45;;;;;;;13.35;100.00;102421.72;5095209;28;20036;-66
2023/09/24 08:51:46;;;;;;;10.85;3.13;;;;;;;13.40;100.00;102417.41;5091061;28;20042;-65
2023/09/24 08:54:13;;;;;;;13.48;3.20;;;;;;;13.49;100.00;102419.34;5093661;28;20032;-66
2023/09/24 08:56:39;;;;;;;13.35;3.30;;;;;;;13.70;100.00;102418.78;5095310;28;20077;-65
2023/09/24 08:59:05;;;;;;;14.85;3.30;;;;;;;14.11;100.00;102421.19;5095121;28;20463;-65
2023/09/24 09:01:30;;;;;;;13.50;3.00;;;;;;;14.78;100.00;102420.31;5094845;28;20016;-66
2023/09/24 09:03:56;;;;;;;11.88;2.80;;;;;;;15.15;100.00;102410.09;5095177;28;20115;-67
2023/09/24 09:06:31;;;;;;;11.15;2.83;;;;;;;15.52;100.00;102414.00;5095189;28;20395;-63
2023/09/24 09:08:57;;;;;;;9.23;2.78;;;;;;;16.09;100.00;102410.00;5094914;28;20475;-65
2023/09/24 09:11:37;;;;;;;11.90;2.90;;;;;;;16.25;100.00;102417.22;5094818;28;20039;-64
2023/09/24 09:14:02;;;;;;;11.07;2.72;;;;;;;16.45;100.00;102401.28;5093644;28;20055;-63
2023/09/24 09:16:27;;;;;;;11.10;2.75;;;;;;;16.84;100.00;102406.78;5095056;28;20121;-64
2023/09/24 09:19:00;;;;;;;13.38;2.70;;;;;;;17.53;100.00;102406.03;5094601;28;20383;-64
2023/09/24 09:21:25;;;;;;;9.55;2.80;;;;;;;17.86;100.00;102398.88;5094494;28;20108;-65
2023/09/24 09:23:51;;;;;;;11.52;2.60;;;;;;;18.02;100.00;102400.66;5094753;28;20110;-66
2023/09/24 09:26:16;;;;;;;11.55;2.60;;;;;;;18.04;100.00;102388.19;5094436;28;20024;-63
2023/09/24 09:28:42;;;;;;;10.05;2.78;;;;;;;18.41;100.00;102380.03;5093142;28;20024;-66
2023/09/24 09:31:09;;;;;;;13.65;2.90;;;;;;;18.87;100.00;102372.69;5094629;28;20034;-63
2023/09/24 09:33:42;;;;;;;8.63;2.42;;;;;;;19.30;100.00;102377.75;5094259;28;20025;-64
2023/09/24 09:36:27;;;;;;;9.55;2.55;;;;;;;19.40;100.00;102365.19;5090503;28;20028;-66
2023/09/24 09:38:54;;;;;;;10.68;2.30;;;;;;;19.91;100.00;102367.41;5092588;28;20432;-64
2023/09/24 09:41:20;;;;;;;8.68;2.47;;;;;;;20.09;100.00;102372.56;5092438;28;20036;-64
2023/09/24 09:43:47;;;;;;;11.27;2.60;;;;;;;20.24;100.00;102359.88;5094376;28;20063;-64
2023/09/24 09:46:18;;;;;;;12.23;2.80;;;;;;;20.82;100.00;102364.47;5091732;28;20032;-65
2023/09/24 09:48:56;;;;;;;9.82;2.38;;;;;;;21.32;100.00;102370.00;5092189;28;20033;-64
2023/09/24 09:51:24;;;;;;;9.68;2.65;;;;;;;20.67;100.00;102362.03;5093816;28;20032;-67
2023/09/24 09:53:50;;;;;;;8.55;2.25;;;;;;;20.25;100.00;102356.28;5094083;28;20031;-68
2023/09/24 09:56:16;;;;;;;9.68;2.35;;;;;;;20.39;100.00;102365.06;5093837;28;20119;-68
2023/09/24 09:58:46;;;;;;;12.07;2.40;;;;;;;20.72;100.00;102357.47;5093756;28;20035;-67
2023/09/24 10:01:12;;;;;;;9.45;2.40;;;;;;;20.97;100.00;102362.47;5093916;28;20032;-71
2023/09/24 10:03:42;;;;;;;8.02;2.15;;;;;;;21.62;100.00;102353.38;5093814;28;20031;-70
2023/09/24 10:06:10;;;;;;;9.65;2.40;;;;;;;21.41;100.00;102358.19;5093593;28;20081;-70
2023/09/24 10:08:43;;;;;;;7.25;2.20;;;;;;;22.07;100.00;102356.13;5093989;28;20116;-68
2023/09/24 10:11:11;;;;;;;9.95;2.33;;;;;;;21.80;100.00;102354.84;5093717;28;20034;-72
2023/09/24 10:13:49;;;;;;;10.30;2.55;;;;;;;21.78;100.00;102344.09;5093463;28;20061;-68
2023/09/24 10:16:24;;;;;;;11.25;2.30;;;;;;;21.94;100.00;102333.94;5093434;28;20095;-68
2023/09/24 10:18:59;;;;;;;8.30;2.30;;;;;;;22.55;100.00;102330.91;5089013;28;20548;-68
2023/09/24 10:21:39;;;;;;;8.30;2.20;;;;;;;23.91;100.00;102335.63;5090302;28;20051;-68
2023/09/24 10:24:10;;;;;;;10.07;2.30;;;;;;;23.43;100.00;102332.41;5093806;28;20028;-70
2023/09/24 10:26:50;;;;;;;9.50;2.20;;;;;;;23.97;100.00;102324.63;5093559;28;20028;-69
2023/09/24 10:29:16;;;;;;;12.40;2.40;;;;;;;23.93;80.70;102329.25;5093465;28;20027;-70
2023/09/24 10:32:10;;;;;;;9.35;2.20;;;;;;;23.57;93.91;102332.00;5093407;28;20032;-70
2023/09/24 10:34:58;;;;;;;7.22;2.13;;;;;;;23.88;96.74;102331.19;5091671;28;20028;-69
2023/09/24 10:37:25;;;;;;;9.77;2.35;;;;;;;24.13;70.80;102328.69;5090075;28;20028;-69
2023/09/24 10:40:05;;;;;;;8.52;2.10;;;;;;;24.17;70.99;102335.78;5093636;28;20099;-69
2023/09/24 10:42:39;;;;;;;6.13;2.10;;;;;;;23.83;83.63;102333.13;5091178;28;20028;-69
2023/09/24 10:45:07;;;;;;;7.30;2.10;;;;;;;23.65;78.48;102335.41;5093150;28;20111;-71
2023/09/24 10:47:35;;;;;;;9.88;2.20;;;;;;;24.54;75.70;102317.56;5091789;28;20451;-69
2023/09/24 10:50:15;;;;;;;9.50;2.20;;;;;;;24.23;71.33;102320.31;5093114;28;20022;-70
2023/09/24 10:53:02;;;;;;;9.07;2.20;;;;;;;23.52;70.32;102322.25;5092269;28;20581;-69
2023/09/24 10:55:30;;;;;;;8.88;2.35;;;;;;;23.73;69.08;102318.09;5090476;28;20040;-69
2023/09/24 10:57:57;;;;;;;8.98;2.33;;;;;;;24.32;75.56;102317.34;5092940;28;20028;-69
2023/09/24 11:00:27;;;;;;;5.43;2.13;;;;;;;24.83;64.05;102313.09;5092886;28;20494;-69
2023/09/24 11:03:02;;;;;;;11.40;2.40;;;;;;;25.04;63.96;102320.47;5092935;28;20033;-69
2023/09/24 11:05:29;;;;;;;7.65;2.30;;;;;;;25.58;61.56;102320.47;5093045;28;20031;-66
2023/09/24 11:07:56;;;;;;;12.05;2.40;;;;;;;26.30;56.88;102325.06;5093059;28;20024;-67
2023/09/24 11:10:25;;;;;;;9.93;2.33;;;;;;;26.87;54.42;102320.13;5092747;28;20023;-66